Time;durP1;ratioP1;P1;durP2;ratioP2;P2;SDS_P1;SDS_P2;PMS_P1;PMS_P2;Temp;Humidity;BMP_temperature;BMP_pressure;BME280_temperature;BME280_humidity;BME280_pressure;Samples;Min_cycle;Max_cycle;Signal;HPM_P1;HPM_P2
2021/08/08 00:00:23;;;;;;;1999.90;999.90;;;18.70;99.90;;;;;;5056980;28;20563;-79
2021/08/08 00:02:49;;;;;;;1999.90;999.90;;;18.70;99.90;;;;;;5056617;28;20631;-79
2021/08/08 00:05:14;;;;;;;1999.90;999.90;;;18.80;99.90;;;;;;5056229;28;20410;-79
2021/08/08 00:07:41;;;;;;;1999.90;999.90;;;18.80;99.90;;;;;;5056498;28;20224;-79
2021/08/08 00:10:09;;;;;;;1999.90;999.90;;;18.80;99.90;;;;;;5038657;28;20188;-79
2021/08/08 00:12:36;;;;;;;1999.90;999.90;;;18.70;99.90;;;;;;5057181;28;20433;-79
2021/08/08 00:15:02;;;;;;;1999.90;999.90;;;18.70;99.90;;;;;;5056419;28;20410;-79
2021/08/08 00:17:28;;;;;;;1999.90;999.90;;;18.70;99.90;;;;;;5056030;28;20423;-79
2021/08/08 00:19:54;;;;;;;1999.90;999.90;;;18.70;99.90;;;;;;5038199;28;20458;-79
2021/08/08 00:22:20;;;;;;;1999.90;999.90;;;18.70;99.90;;;;;;5038766;28;20173;-79
2021/08/08 00:24:46;;;;;;;1999.90;999.90;;;18.70;99.90;;;;;;5056452;28;20464;-79
2021/08/08 00:27:11;;;;;;;1999.90;999.90;;;18.70;99.90;;;;;;5055827;28;20920;-79
2021/08/08 00:29:37;;;;;;;1999.90;999.90;;;18.70;99.90;;;;;;5056235;28;20666;-79
2021/08/08 00:32:03;;;;;;;1999.90;999.90;;;18.70;99.90;;;;;;5055035;28;20165;-79
2021/08/08 00:34:29;;;;;;;1999.90;999.90;;;18.60;99.90;;;;;;5055864;28;20176;-79
2021/08/08 00:36:55;;;;;;;1999.90;999.90;;;18.60;99.90;;;;;;5055636;28;20541;-79
2021/08/08 00:39:21;;;;;;;1999.90;999.90;;;18.60;99.90;;;;;;5055612;28;20196;-79
2021/08/08 00:41:47;;;;;;;1999.90;999.90;;;18.70;99.90;;;;;;5037701;28;20723;-79
2021/08/08 00:44:13;;;;;;;1999.90;999.90;;;18.70;99.90;;;;;;5055554;28;20410;-79
2021/08/08 00:46:39;;;;;;;1999.90;999.90;;;18.70;99.90;;;;;;5056231;28;20860;-79
2021/08/08 00:49:05;;;;;;;1999.90;999.90;;;18.60;99.90;;;;;;5055839;28;20915;-79
2021/08/08 00:51:33;;;;;;;1999.90;999.90;;;18.60;99.90;;;;;;5055318;28;20490;-79
2021/08/08 00:53:59;;;;;;;1999.90;999.90;;;18.60;99.90;;;;;;5055640;28;20260;-79
2021/08/08 00:56:25;;;;;;;1999.90;999.90;;;18.60;99.90;;;;;;5037702;28;20987;-79
2021/08/08 00:58:51;;;;;;;1999.90;999.90;;;18.60;99.90;;;;;;5055361;28;21016;-79
2021/08/08 01:01:19;;;;;;;1999.90;999.90;;;18.60;99.90;;;;;;5055246;28;20407;-79
2021/08/08 01:03:45;;;;;;;1999.90;999.90;;;18.50;99.90;;;;;;5037747;28;20179;-79
2021/08/08 01:06:37;;;;;;;1999.90;999.90;;;18.50;99.90;;;;;;5055565;28;20414;-79
2021/08/08 01:09:05;;;;;;;1999.90;999.90;;;18.60;99.90;;;;;;5055766;28;20909;-79
2021/08/08 01:11:32;;;;;;;1999.90;999.90;;;18.60;99.90;;;;;;5055464;28;20407;-78
2021/08/08 01:13:59;;;;;;;1999.90;999.90;;;18.50;99.90;;;;;;5056202;28;20415;-78
2021/08/08 01:16:26;;;;;;;1999.90;999.90;;;18.60;99.90;;;;;;5055717;28;20431;-79
2021/08/08 01:18:53;;;;;;;1999.90;999.90;;;18.60;99.90;;;;;;5037975;28;20451;-79
2021/08/08 01:21:22;;;;;;;1999.90;999.90;;;18.50;99.90;;;;;;5056193;28;20457;-79
2021/08/08 01:23:58;;;;;;;1999.90;999.90;;;18.60;99.90;;;;;;5055662;28;20442;-78
2021/08/08 01:26:26;;;;;;;1999.90;999.90;;;18.70;99.90;;;;;;5037212;28;20442;-79
2021/08/08 01:28:55;;;;;;;1999.90;999.90;;;18.70;99.90;;;;;;5055594;28;20411;-79
2021/08/08 01:31:21;;;;;;;1999.90;999.90;;;18.70;99.90;;;;;;5055512;28;20403;-79
2021/08/08 01:33:47;;;;;;;1999.90;999.90;;;18.70;99.90;;;;;;5037572;28;20450;-79
2021/08/08 01:36:17;;;;;;;1999.90;999.90;;;18.60;99.90;;;;;;5055333;28;20435;-79
2021/08/08 01:38:50;;;;;;;1999.90;999.90;;;18.70;99.90;;;;;;5055530;28;20438;-79
2021/08/08 01:41:17;;;;;;;1999.90;999.90;;;18.50;99.90;;;;;;5055455;28;20391;-79
2021/08/08 01:43:47;;;;;;;1999.90;999.90;;;18.60;99.90;;;;;;5056488;28;20404;-79
2021/08/08 01:46:15;;;;;;;1999.90;999.90;;;18.50;99.90;;;;;;5042689;28;20564;-79
2021/08/08 01:48:47;;;;;;;1999.90;999.90;;;18.50;99.90;;;;;;5059081;28;20403;-78
2021/08/08 01:51:13;;;;;;;1999.90;999.90;;;18.40;99.90;;;;;;5058947;28;20395;-79
2021/08/08 01:53:39;;;;;;;1999.90;999.90;;;18.40;99.90;;;;;;5058968;28;20403;-78
2021/08/08 01:56:05;;;;;;;1999.90;999.90;;;18.50;99.90;;;;;;5058844;28;20957;-78
2021/08/08 01:58:32;;;;;;;1999.90;999.90;;;18.40;99.90;;;;;;5058629;28;20446;-78
2021/08/08 02:00:58;;;;;;;1999.90;999.90;;;18.50;99.90;;;;;;5059342;28;20771;-79
2021/08/08 02:03:38;;;;;;;1999.90;999.90;;;18.50;99.90;;;;;;5058491;28;20823;-78
2021/08/08 02:06:06;;;;;;;1999.90;999.90;;;18.50;99.90;;;;;;5058817;28;20466;-79
2021/08/08 02:08:32;;;;;;;1999.90;999.90;;;18.30;99.90;;;;;;5040907;28;20411;-78
2021/08/08 02:10:58;;;;;;;1999.90;999.90;;;18.40;99.90;;;;;;5041221;28;20945;-79
2021/08/08 02:13:25;;;;;;;1999.90;999.90;;;18.40;99.90;;;;;;5058601;28;20168;-78
2021/08/08 02:15:51;;;;;;;1999.90;999.90;;;18.40;99.90;;;;;;5058750;28;20770;-78
2021/08/08 02:18:17;;;;;;;1999.90;999.90;;;18.40;99.90;;;;;;5058450;28;20407;-78
2021/08/08 02:20:46;;;;;;;1999.90;999.90;;;18.40;99.90;;;;;;5058395;28;20391;-77
2021/08/08 02:23:12;;;;;;;1999.90;999.90;;;18.40;99.90;;;;;;5040130;28;20406;-79
2021/08/08 02:25:39;;;;;;;1999.90;999.90;;;18.40;99.90;;;;;;5058143;28;20402;-79
2021/08/08 02:28:08;;;;;;;1999.90;999.90;;;18.30;99.90;;;;;;5058797;28;20454;-79
2021/08/08 02:30:35;;;;;;;1999.90;999.90;;;18.30;99.90;;;;;;5039789;28;20395;-78
2021/08/08 02:33:02;;;;;;;1999.90;999.90;;;18.30;99.90;;;;;;5058150;28;20759;-79
2021/08/08 02:35:28;;;;;;;1999.90;999.90;;;18.20;99.90;;;;;;5058416;28;20396;-79
2021/08/08 02:37:53;;;;;;;1999.90;999.90;;;18.20;99.90;;;;;;5057983;28;20441;-79
2021/08/08 02:40:19;;;;;;;1999.90;999.90;;;18.00;99.90;;;;;;5058105;28;20192;-78
2021/08/08 02:42:45;;;;;;;1999.90;999.90;;;18.10;99.90;;;;;;5057983;28;20165;-79
2021/08/08 02:45:11;;;;;;;1999.90;999.90;;;18.20;99.90;;;;;;5057907;28;20391;-78
2021/08/08 02:47:37;;;;;;;1999.90;999.90;;;18.20;99.90;;;;;;5057398;28;20191;-79
2021/08/08 02:50:05;;;;;;;1999.90;999.90;;;18.20;99.90;;;;;;5058462;28;20789;-80
2021/08/08 02:52:31;;;;;;;1999.90;999.90;;;18.20;99.90;;;;;;5057672;28;20469;-80
2021/08/08 02:54:56;;;;;;;1999.90;999.90;;;18.30;99.90;;;;;;5057010;28;20403;-80
2021/08/08 02:57:22;;;;;;;1999.90;999.90;;;18.30;99.90;;;;;;5057645;28;20589;-79
2021/08/08 02:59:48;;;;;;;1999.90;999.90;;;18.30;99.90;;;;;;5057500;28;20242;-78
2021/08/08 03:02:13;;;;;;;1999.90;999.90;;;18.30;99.90;;;;;;5057748;28;20172;-80
2021/08/08 03:04:39;;;;;;;1999.90;999.90;;;18.20;99.90;;;;;;5057617;28;20165;-79
2021/08/08 03:07:05;;;;;;;1999.90;999.90;;;18.10;99.90;;;;;;5057313;28;20180;-80
2021/08/08 03:09:31;;;;;;;1999.90;999.90;;;18.20;99.90;;;;;;5057823;28;20184;-80
2021/08/08 03:11:57;;;;;;;1999.90;999.90;;;18.10;99.90;;;;;;5057906;28;20167;-81
2021/08/08 03:14:23;;;;;;;1999.90;999.90;;;18.20;99.90;;;;;;5057458;28;20399;-80
2021/08/08 03:16:49;;;;;;;1999.90;999.90;;;18.20;99.90;;;;;;5058011;28;20189;-79
2021/08/08 03:19:15;;;;;;;1999.90;999.90;;;18.10;99.90;;;;;;5057128;28;20443;-81
2021/08/08 03:21:41;;;;;;;1999.90;999.90;;;18.10;99.90;;;;;;5056961;28;20195;-78
2021/08/08 03:24:07;;;;;;;1999.90;999.90;;;18.00;99.90;;;;;;5056954;28;20399;-78
2021/08/08 03:26:33;;;;;;;1999.90;999.90;;;18.00;99.90;;;;;;5057344;28;20180;-79
2021/08/08 03:28:59;;;;;;;1999.90;999.90;;;18.00;99.90;;;;;;5057154;28;20208;-80
2021/08/08 03:31:27;;;;;;;1999.90;999.90;;;18.10;99.90;;;;;;5057077;28;20410;-79
2021/08/08 03:33:54;;;;;;;1999.90;999.90;;;18.10;99.90;;;;;;5039523;28;20926;-78
2021/08/08 03:36:20;;;;;;;1999.90;999.90;;;18.10;99.90;;;;;;5038477;28;20462;-78
2021/08/08 03:38:45;;;;;;;1999.90;999.90;;;18.10;99.90;;;;;;5056990;28;20434;-78
2021/08/08 03:41:11;;;;;;;1999.90;999.90;;;18.20;99.90;;;;;;5038914;28;20418;-80
2021/08/08 03:43:37;;;;;;;1999.90;999.90;;;18.10;99.90;;;;;;5057232;28;20243;-78
2021/08/08 03:46:02;;;;;;;1999.90;999.90;;;18.00;99.90;;;;;;5056685;28;20243;-81
2021/08/08 03:48:28;;;;;;;1999.90;999.90;;;18.00;99.90;;;;;;5055602;28;20240;-80
2021/08/08 03:50:53;;;;;;;1999.90;999.90;;;18.00;99.90;;;;;;5056054;28;20700;-80
2021/08/08 03:53:19;;;;;;;1999.90;999.90;;;18.10;99.90;;;;;;5056700;28;20175;-81
2021/08/08 03:55:48;;;;;;;1999.90;999.90;;;18.10;99.90;;;;;;5057216;28;20169;-80
2021/08/08 03:58:13;;;;;;;1999.90;999.90;;;18.10;99.90;;;;;;5056782;28;20571;-80
2021/08/08 04:00:39;;;;;;;1999.90;999.90;;;18.10;99.90;;;;;;5056345;28;20399;-81
2021/08/08 04:03:05;;;;;;;1999.90;999.90;;;18.10;99.90;;;;;;5056928;28;20172;-80
2021/08/08 04:05:31;;;;;;;1999.90;999.90;;;18.00;99.90;;;;;;5038790;28;20173;-80
2021/08/08 04:07:57;;;;;;;1999.90;999.90;;;17.90;99.90;;;;;;5055990;28;20426;-80
2021/08/08 04:10:23;;;;;;;1999.90;999.90;;;18.00;99.90;;;;;;5056893;28;20247;-80
2021/08/08 04:12:48;;;;;;;1999.90;999.90;;;18.10;99.90;;;;;;5056444;28;20199;-80
2021/08/08 04:15:14;;;;;;;1999.90;999.90;;;18.00;99.90;;;;;;5057003;28;20165;-81
2021/08/08 04:17:39;;;;;;;1999.90;999.90;;;18.10;99.90;;;;;;5055683;28;20189;-80
2021/08/08 04:20:05;;;;;;;1999.90;999.90;;;18.00;99.90;;;;;;5038977;28;20598;-80
2021/08/08 04:22:31;;;;;;;1999.90;999.90;;;18.10;99.90;;;;;;5038661;28;20243;-80
2021/08/08 04:24:57;;;;;;;1999.90;999.90;;;18.10;99.90;;;;;;5055621;28;20993;-81
2021/08/08 04:27:23;;;;;;;1999.90;999.90;;;18.10;99.90;;;;;;5056665;28;20540;-80
2021/08/08 04:29:49;;;;;;;1999.90;999.90;;;18.10;99.90;;;;;;5056780;28;20168;-80
2021/08/08 04:32:15;;;;;;;1999.90;999.90;;;18.10;99.90;;;;;;5056664;28;20403;-80
2021/08/08 04:34:40;;;;;;;1999.90;999.90;;;18.10;99.90;;;;;;5056097;28;20171;-80
2021/08/08 04:37:06;;;;;;;1999.90;999.90;;;18.10;99.90;;;;;;5021930;28;20212;-80
2021/08/08 04:39:31;;;;;;;1999.90;999.90;;;18.10;99.90;;;;;;5056346;28;20675;-80
2021/08/08 04:41:57;;;;;;;1999.90;999.90;;;18.20;99.90;;;;;;5056326;28;20218;-80
2021/08/08 04:44:23;;;;;;;1999.90;999.90;;;18.20;99.90;;;;;;5056493;28;20714;-80
2021/08/08 04:46:49;;;;;;;1999.90;999.90;;;18.20;99.90;;;;;;5038395;28;20452;-80
2021/08/08 04:49:15;;;;;;;1999.90;999.90;;;18.20;99.90;;;;;;5056422;28;20202;-80
2021/08/08 04:51:41;;;;;;;1999.90;999.90;;;18.20;99.90;;;;;;5056251;28;20494;-80
2021/08/08 04:54:08;;;;;;;1999.90;999.90;;;18.30;99.90;;;;;;5055899;28;20403;-80
2021/08/08 04:56:37;;;;;;;1999.90;999.90;;;18.20;99.90;;;;;;5055978;28;20455;-80
2021/08/08 04:59:02;;;;;;;1999.90;999.90;;;18.20;99.90;;;;;;5055988;28;20474;-80
2021/08/08 05:01:29;;;;;;;1999.90;999.90;;;18.20;99.90;;;;;;5038252;28;20430;-80
2021/08/08 05:03:56;;;;;;;1999.90;999.90;;;18.20;99.90;;;;;;5056127;28;20218;-80
2021/08/08 05:06:22;;;;;;;1999.90;999.90;;;18.20;99.90;;;;;;5055903;28;20982;-80
2021/08/08 05:08:47;;;;;;;1999.90;999.90;;;18.10;99.90;;;;;;5055879;28;20446;-80
2021/08/08 05:11:18;;;;;;;1999.90;999.90;;;18.10;99.90;;;;;;5056099;28;20398;-80
2021/08/08 05:13:44;;;;;;;1999.90;999.90;;;18.10;99.90;;;;;;5055695;28;20168;-80
2021/08/08 05:16:12;;;;;;;1999.90;999.90;;;18.00;99.90;;;;;;5038125;28;20521;-80
2021/08/08 05:18:38;;;;;;;1999.90;999.90;;;18.00;99.90;;;;;;5057096;28;20450;-80
2021/08/08 05:21:03;;;;;;;1999.90;999.90;;;18.00;99.90;;;;;;5041902;28;20775;-80
2021/08/08 05:23:29;;;;;;;1999.90;999.90;;;18.00;99.90;;;;;;5059783;28;20165;-80
2021/08/08 05:25:59;;;;;;;1999.90;999.90;;;17.90;99.90;;;;;;5041880;28;20263;-80
2021/08/08 05:28:25;;;;;;;1999.90;999.90;;;17.90;99.90;;;;;;5041756;28;20153;-80
2021/08/08 05:30:51;;;;;;;1999.90;999.90;;;17.90;99.90;;;;;;5060212;28;20422;-80
2021/08/08 05:33:17;;;;;;;1999.90;999.90;;;18.00;99.90;;;;;;5042312;28;20399;-80
2021/08/08 05:35:42;;;;;;;1999.90;999.90;;;18.00;99.90;;;;;;5059535;28;20157;-80
2021/08/08 05:38:08;;;;;;;1999.90;999.90;;;18.00;99.90;;;;;;5059870;28;20196;-80
2021/08/08 05:40:34;;;;;;;1999.90;999.90;;;18.00;99.90;;;;;;5059636;28;20165;-80
2021/08/08 05:42:59;;;;;;;1999.90;999.90;;;18.10;99.90;;;;;;5059536;28;20165;-80
2021/08/08 05:45:25;;;;;;;1999.90;999.90;;;18.10;99.90;;;;;;5059716;28;20169;-80
2021/08/08 05:47:51;;;;;;;1999.90;999.90;;;18.20;99.90;;;;;;5041573;28;20189;-80
2021/08/08 05:50:17;;;;;;;1999.90;999.90;;;18.20;99.90;;;;;;5059641;28;20172;-80
2021/08/08 05:52:49;;;;;;;1999.90;999.90;;;18.30;99.90;;;;;;5059424;28;20457;-79
2021/08/08 05:55:16;;;;;;;1999.90;999.90;;;18.30;99.90;;;;;;5059415;28;20410;-79
2021/08/08 05:57:41;;;;;;;1999.90;999.90;;;18.30;99.90;;;;;;5059594;28;20480;-80
2021/08/08 06:00:07;;;;;;;1999.90;999.90;;;18.30;99.90;;;;;;5060438;28;20435;-80
2021/08/08 06:02:33;;;;;;;1999.90;999.90;;;18.40;99.90;;;;;;5041474;28;20639;-80
2021/08/08 06:04:59;;;;;;;1999.90;999.90;;;18.40;99.90;;;;;;5059934;28;20403;-80
2021/08/08 06:07:25;;;;;;;1999.90;999.90;;;18.40;99.90;;;;;;5059240;28;20415;-80
2021/08/08 06:09:50;;;;;;;1999.90;999.90;;;18.30;99.90;;;;;;5059320;28;20165;-80
2021/08/08 06:12:16;;;;;;;1999.90;999.90;;;18.30;99.90;;;;;;5059056;28;20165;-80
2021/08/08 06:14:41;;;;;;;1999.90;999.90;;;18.30;99.90;;;;;;5040927;28;20169;-80
2021/08/08 06:17:07;;;;;;;1999.90;999.90;;;18.30;99.90;;;;;;5058493;28;20188;-80
2021/08/08 06:19:33;;;;;;;1999.90;999.90;;;18.40;99.90;;;;;;5058284;28;20188;-80
2021/08/08 06:21:58;;;;;;;1999.90;999.90;;;18.50;99.90;;;;;;5040707;28;20165;-80
2021/08/08 06:24:24;;;;;;;1999.90;999.90;;;18.50;99.90;;;;;;5040618;28;20169;-80
2021/08/08 06:26:50;;;;;;;1999.90;999.90;;;18.60;99.90;;;;;;5058726;28;20180;-80
2021/08/08 06:29:15;;;;;;;1999.90;999.90;;;18.60;99.90;;;;;;5058871;28;20188;-80
2021/08/08 06:31:41;;;;;;;1999.90;999.90;;;18.60;99.90;;;;;;5058880;28;20247;-80
2021/08/08 06:34:06;;;;;;;1999.90;999.90;;;18.70;99.90;;;;;;5058694;28;20596;-80
2021/08/08 06:36:32;;;;;;;1999.90;999.90;;;18.80;99.90;;;;;;5040447;28;20204;-80
2021/08/08 06:39:03;;;;;;;1999.90;999.90;;;18.90;99.90;;;;;;5058247;28;20212;-80
2021/08/08 06:41:29;;;;;;;1999.90;999.90;;;19.00;99.90;;;;;;5058422;28;20145;-80
2021/08/08 06:43:55;;;;;;;1999.90;999.90;;;19.00;99.90;;;;;;5058306;28;20464;-80
2021/08/08 06:46:20;;;;;;;1999.90;999.90;;;19.20;99.90;;;;;;5040396;28;20651;-80
2021/08/08 06:48:46;;;;;;;1999.90;999.90;;;19.20;99.90;;;;;;5058410;28;20168;-80
2021/08/08 06:51:12;;;;;;;1999.90;999.90;;;19.20;99.90;;;;;;5058614;28;20196;-80
2021/08/08 06:53:38;;;;;;;1999.90;999.90;;;19.10;99.90;;;;;;5040076;28;20183;-80
2021/08/08 06:56:04;;;;;;;1999.90;999.90;;;19.20;99.90;;;;;;5058380;28;20207;-80
2021/08/08 06:58:29;;;;;;;1999.90;999.90;;;19.30;99.90;;;;;;5040170;28;20898;-80
2021/08/08 07:00:55;;;;;;;1999.90;999.90;;;19.20;99.90;;;;;;5058058;28;20214;-80
2021/08/08 07:03:21;;;;;;;1999.90;999.90;;;19.20;99.90;;;;;;5040229;28;20190;-80
2021/08/08 07:05:46;;;;;;;1999.90;999.90;;;19.00;99.90;;;;;;5058192;28;20168;-79
2021/08/08 07:08:12;;;;;;;1999.90;999.90;;;19.00;99.90;;;;;;5058574;28;20653;-80
2021/08/08 07:10:38;;;;;;;1999.90;999.90;;;19.10;99.90;;;;;;5057991;28;20637;-80
2021/08/08 07:13:04;;;;;;;1999.90;999.90;;;19.30;99.90;;;;;;5058157;28;20177;-80
2021/08/08 07:15:29;;;;;;;1999.90;999.90;;;19.20;99.90;;;;;;5057901;28;20478;-80
2021/08/08 07:17:55;;;;;;;1999.90;999.90;;;19.30;99.90;;;;;;5057783;28;20660;-80
2021/08/08 07:20:21;;;;;;;1999.90;999.90;;;19.20;99.90;;;;;;5040204;28;20218;-80
2021/08/08 07:22:46;;;;;;;1999.90;999.90;;;19.20;99.90;;;;;;5057734;28;20407;-80
2021/08/08 07:25:12;;;;;;;1999.90;999.90;;;19.30;99.90;;;;;;5058060;28;20578;-80
2021/08/08 07:27:38;;;;;;;1999.90;999.90;;;19.20;99.90;;;;;;5058006;28;20234;-80
2021/08/08 07:30:05;;;;;;;1999.90;999.90;;;19.30;99.90;;;;;;5039501;28;20206;-79
2021/08/08 07:32:30;;;;;;;1999.90;999.90;;;19.40;99.90;;;;;;5039822;28;20641;-80
2021/08/08 07:34:56;;;;;;;1999.90;999.90;;;19.60;99.90;;;;;;5057311;28;20415;-80
2021/08/08 07:37:24;;;;;;;1999.90;999.90;;;19.60;99.80;;;;;;5057482;28;20208;-80
2021/08/08 07:39:49;;;;;;;1999.90;999.90;;;19.50;97.90;;;;;;5057598;28;20687;-80
2021/08/08 07:42:15;;;;;;;1999.90;999.90;;;19.40;97.40;;;;;;5038536;28;20420;-78
2021/08/08 07:44:41;;;;;;;1999.90;999.90;;;19.40;98.20;;;;;;5039005;28;20223;-79
2021/08/08 07:47:07;;;;;;;1999.90;999.90;;;19.40;95.60;;;;;;5057521;28;20427;-79
2021/08/08 07:49:33;;;;;;;1999.90;999.90;;;19.20;96.50;;;;;;5057091;28;20216;-80
2021/08/08 07:51:58;;;;;;;1999.90;999.90;;;19.20;97.10;;;;;;5057177;28;20702;-80
2021/08/08 07:54:24;;;;;;;1999.90;999.90;;;19.20;97.50;;;;;;5057092;28;20465;-80
2021/08/08 07:56:50;;;;;;;1999.90;999.90;;;19.20;97.90;;;;;;5039125;28;20192;-80
2021/08/08 07:59:15;;;;;;;1999.90;999.90;;;19.20;96.80;;;;;;5056755;28;20691;-80
2021/08/08 08:01:41;;;;;;;1999.90;999.90;;;19.20;97.50;;;;;;5057019;28;20180;-80
2021/08/08 08:04:08;;;;;;;1999.90;999.90;;;19.10;97.00;;;;;;5057150;28;20161;-80
2021/08/08 08:06:34;;;;;;;1999.90;999.90;;;19.10;97.60;;;;;;5056390;28;20791;-80
2021/08/08 08:08:59;;;;;;;1999.90;999.90;;;19.10;95.60;;;;;;5038673;28;20487;-80
2021/08/08 08:11:25;;;;;;;1999.90;999.90;;;19.20;98.20;;;;;;5038361;28;20489;-80
2021/08/08 08:13:51;;;;;;;1999.90;999.90;;;19.30;96.80;;;;;;5056774;28;20208;-80
2021/08/08 08:16:16;;;;;;;1999.90;999.90;;;19.40;96.90;;;;;;5056263;28;20214;-80
2021/08/08 08:18:42;;;;;;;1999.90;999.90;;;19.50;96.20;;;;;;5056062;28;20570;-80
2021/08/08 08:21:08;;;;;;;1999.90;999.90;;;19.50;95.30;;;;;;5056662;28;20184;-80
2021/08/08 08:23:33;;;;;;;1999.90;999.90;;;19.60;93.70;;;;;;5038667;28;20203;-80
2021/08/08 08:25:59;;;;;;;1999.90;999.90;;;19.80;89.70;;;;;;5038227;28;20673;-80
2021/08/08 08:28:29;;;;;;;1999.90;999.90;;;19.70;85.80;;;;;;5056685;28;20670;-80
2021/08/08 08:30:55;;;;;;;1999.90;999.90;;;19.60;86.00;;;;;;5056345;28;20407;-80
2021/08/08 08:33:21;;;;;;;1999.90;999.90;;;19.60;89.00;;;;;;5056432;28;20399;-80
2021/08/08 08:35:47;;;;;;;1999.90;999.90;;;19.70;86.80;;;;;;5056272;28;20388;-80
2021/08/08 08:38:12;;;;;;;1999.90;999.90;;;19.80;83.50;;;;;;5056108;28;20181;-80
2021/08/08 08:40:42;;;;;;;1999.90;999.90;;;19.90;86.20;;;;;;5056319;28;20197;-80
2021/08/08 08:43:08;;;;;;;1999.90;999.90;;;20.00;78.30;;;;;;5038213;28;20543;-80
2021/08/08 08:45:39;;;;;;;1999.90;999.90;;;20.10;81.90;;;;;;5056220;28;20990;-80
2021/08/08 08:48:05;;;;;;;1999.90;999.90;;;19.90;82.50;;;;;;5056729;28;20419;-80
2021/08/08 08:50:34;;;;;;;1999.90;999.90;;;20.10;80.70;;;;;;5056433;28;20416;-80
2021/08/08 08:53:01;;;;;;;1999.90;999.90;;;20.20;79.90;;;;;;5055428;28;20400;-80
2021/08/08 08:55:27;;;;;;;1999.90;999.90;;;20.30;79.00;;;;;;5056801;28;20450;-80
2021/08/08 08:57:54;;;;;;;1999.90;999.90;;;20.30;76.50;;;;;;5056127;28;20431;-80
2021/08/08 09:00:23;;;;;;;1999.90;999.90;;;20.30;80.30;;;;;;5055649;28;20478;-80
2021/08/08 09:02:50;;;;;;;1999.90;999.90;;;20.50;80.90;;;;;;5038220;28;20435;-80
2021/08/08 09:05:16;;;;;;;1999.90;999.90;;;20.70;78.80;;;;;;5055547;28;20938;-80
2021/08/08 09:07:41;;;;;;;1999.90;999.90;;;20.70;79.20;;;;;;5056144;28;20568;-81
2021/08/08 09:10:14;;;;;;;1999.90;999.90;;;20.80;76.60;;;;;;5038288;28;20183;-81
2021/08/08 09:12:41;;;;;;;1999.90;999.90;;;20.60;75.80;;;;;;5056304;28;20168;-80
2021/08/08 09:15:08;;;;;;;1999.90;999.90;;;20.30;73.20;;;;;;5038103;28;20407;-80
2021/08/08 09:17:39;;;;;;;1999.90;999.90;;;20.40;75.50;;;;;;5055592;28;20527;-80
2021/08/08 09:20:11;;;;;;;1999.90;999.90;;;20.50;73.30;;;;;;5055575;28;20451;-79
2021/08/08 09:22:38;;;;;;;1999.90;999.90;;;20.50;70.00;;;;;;5056150;28;20939;-78
2021/08/08 09:25:05;;;;;;;1999.90;999.90;;;20.30;63.60;;;;;;5055850;28;20413;-81
2021/08/08 09:27:34;;;;;;;1999.90;999.90;;;20.20;68.60;;;;;;5055468;28;20425;-80
2021/08/08 09:30:01;;;;;;;1999.90;999.90;;;20.30;68.60;;;;;;5055896;28;20433;-80
2021/08/08 09:32:35;;;;;;;1999.90;999.90;;;20.50;71.70;;;;;;5055971;28;20435;-80
2021/08/08 09:35:10;;;;;;;1999.90;999.90;;;20.60;64.80;;;;;;5037527;28;20417;-80
2021/08/08 09:37:39;;;;;;;1999.90;999.90;;;20.80;67.60;;;;;;5122839;22;20590;-84
2021/08/08 09:40:17;;;;;;;1999.90;999.90;;;21.00;58.70;;;;;;5084834;28;20449;-85
2021/08/08 09:42:53;;;;;;;1999.90;999.90;;;21.20;61.40;;;;;;5084254;28;20881;-84
2021/08/08 09:45:43;;;;;;;1999.90;999.90;;;21.50;66.30;;;;;;5083594;28;20419;-84
2021/08/08 09:48:16;;;;;;;1999.90;999.90;;;21.60;57.80;;;;;;5065537;28;20491;-84
2021/08/08 09:51:06;;;;;;;1999.90;999.90;;;21.70;55.20;;;;;;5048442;28;20409;-84
2021/08/08 09:53:32;;;;;;;1999.90;999.90;;;21.80;45.70;;;;;;5065111;28;20438;-84
2021/08/08 09:56:04;;;;;;;1999.90;999.90;;;21.50;37.40;;;;;;5066426;28;20432;-84
2021/08/08 09:58:43;;;;;;;1999.90;999.90;;;21.40;45.40;;;;;;5082615;28;20405;-83
2021/08/08 10:01:38;;;;;;;1999.90;999.90;;;21.20;42.60;;;;;;5080220;28;20421;-82
2021/08/08 10:04:17;;;;;;;1999.90;999.90;;;21.10;47.30;;;;;;5083382;28;20478;-83
2021/08/08 10:06:48;;;;;;;1999.90;999.90;;;21.10;49.10;;;;;;5087881;28;20422;-82
2021/08/08 10:09:33;;;;;;;1999.90;999.90;;;21.10;47.80;;;;;;5087384;28;20393;-83
2021/08/08 10:12:25;;;;;;;1999.90;999.90;;;21.00;51.80;;;;;;5087224;28;20451;-83
2021/08/08 10:15:00;;;;;;;1999.90;999.90;;;21.00;55.20;;;;;;5036667;28;20406;-83
2021/08/08 10:17:27;;;;;;;1999.90;999.90;;;20.90;56.20;;;;;;5067874;28;20440;-83
2021/08/08 10:19:56;;;;;;;1999.90;999.90;;;20.90;58.50;;;;;;5082788;28;20450;-84
2021/08/08 10:22:25;;;;;;;1999.90;999.90;;;21.10;52.80;;;;;;5087199;28;20429;-83
2021/08/08 10:25:00;;;;;;;1999.90;999.90;;;21.50;55.40;;;;;;5089514;28;20402;-83
2021/08/08 10:27:29;;;;;;;1999.90;999.90;;;21.90;58.60;;;;;;5070879;28;20437;-83
2021/08/08 10:30:08;;;;;;;1999.90;999.90;;;22.00;42.40;;;;;;5071683;28;20414;-83
2021/08/08 10:32:45;;;;;;;1999.90;999.90;;;22.00;49.10;;;;;;5071756;28;20414;-83
2021/08/08 10:35:24;;;;;;;1999.90;999.90;;;21.90;37.20;;;;;;5090054;28;20403;-84
2021/08/08 10:38:08;;;;;;;1999.90;999.90;;;21.90;43.50;;;;;;5090043;28;20453;-84
2021/08/08 10:40:37;;;;;;;1999.90;999.90;;;22.00;40.60;;;;;;5089814;28;20441;-84
2021/08/08 10:43:07;;;;;;;1999.90;999.90;;;21.80;45.00;;;;;;5089521;28;20459;-84
2021/08/08 10:45:35;;;;;;;1999.90;999.90;;;21.80;44.30;;;;;;5088436;28;20401;-83
2021/08/08 10:48:10;;;;;;;1999.90;999.90;;;21.80;42.90;;;;;;5071484;28;20434;-84
2021/08/08 10:50:39;;;;;;;1999.90;999.90;;;21.80;41.80;;;;;;5089608;28;20421;-84
2021/08/08 10:53:26;;;;;;;1999.90;999.90;;;21.60;34.20;;;;;;5089442;28;20474;-83
2021/08/08 10:56:12;;;;;;;1999.90;999.90;;;21.70;39.20;;;;;;5088181;28;20416;-83
2021/08/08 10:58:44;;;;;;;1999.90;999.90;;;21.60;39.60;;;;;;5088341;28;20414;-84
2021/08/08 11:01:30;;;;;;;1999.90;999.90;;;21.80;41.20;;;;;;5088441;28;20391;-84
2021/08/08 11:04:07;;;;;;;1999.90;999.90;;;22.00;41.30;;;;;;5090511;28;20453;-84
2021/08/08 11:07:03;;;;;;;1999.90;999.90;;;22.30;45.20;;;;;;5089379;28;20422;-84
2021/08/08 11:09:31;;;;;;;1999.90;999.90;;;22.20;45.10;;;;;;5074061;28;20425;-84
2021/08/08 11:11:57;;;;;;;1999.90;999.90;;;22.20;48.60;;;;;;5089590;28;20406;-84
2021/08/08 11:14:25;;;;;;;1999.90;999.90;;;22.10;45.90;;;;;;5071689;28;20463;-84
2021/08/08 11:17:05;;;;;;;1999.90;999.90;;;22.10;45.80;;;;;;5088221;28;20263;-84
2021/08/08 11:19:40;;;;;;;1999.90;999.90;;;22.30;45.10;;;;;;5070989;28;20446;-84
2021/08/08 11:22:15;;;;;;;1999.90;999.90;;;22.30;45.20;;;;;;5071311;28;20428;-84
2021/08/08 11:24:42;;;;;;;1999.90;999.90;;;22.40;42.70;;;;;;5088755;28;20393;-83
2021/08/08 11:27:10;;;;;;;1999.90;999.90;;;22.60;40.00;;;;;;5088281;28;20485;-83
2021/08/08 11:29:36;;;;;;;1999.90;999.90;;;22.30;40.80;;;;;;5070824;28;20493;-84
2021/08/08 11:32:05;;;;;;;1999.90;999.90;;;22.40;41.60;;;;;;5089597;28;20413;-84
2021/08/08 11:34:31;;;;;;;1999.90;999.90;;;22.50;43.30;;;;;;5066338;28;20402;-82
2021/08/08 11:36:59;;;;;;;1999.90;999.90;;;22.60;35.20;;;;;;5075292;28;20425;-83
2021/08/08 11:39:34;;;;;;;1999.90;999.90;;;22.60;38.10;;;;;;5075606;28;20172;-82
2021/08/08 11:42:06;;;;;;;1999.90;999.90;;;22.40;33.40;;;;;;5075410;28;20467;-82
2021/08/08 11:44:37;;;;;;;1999.90;999.90;;;22.30;36.50;;;;;;5075417;28;20444;-83
2021/08/08 11:47:03;;;;;;;1999.90;999.90;;;22.20;35.30;;;;;;5056640;28;20425;-83
2021/08/08 11:49:31;;;;;;;1999.90;999.90;;;22.30;45.70;;;;;;5075673;28;20406;-83
2021/08/08 11:51:58;;;;;;;1999.90;999.90;;;22.60;43.90;;;;;;5075504;28;20489;-83
2021/08/08 11:54:35;;;;;;;1999.90;999.90;;;22.90;43.00;;;;;;5057314;28;20413;-83
2021/08/08 11:57:01;;;;;;;1999.90;999.90;;;23.20;28.20;;;;;;5057833;28;20512;-83
2021/08/08 11:59:31;;;;;;;1999.90;999.90;;;23.50;25.80;;;;;;5075137;28;20866;-83
2021/08/08 12:02:07;;;;;;;1999.90;999.90;;;23.50;27.30;;;;;;5075338;28;20477;-83